sensor_id;sensor_type;location;lat;lon;timestamp;pressure;altitude;pressure_sealevel;temperature;humidity
46876;BME280;32866;50.160;14.768;2024-01-30T00:02:12;101198.34;;;-3.89;100.00
46876;BME280;32866;50.160;14.768;2024-01-30T00:04:38;101204.91;;;-3.95;100.00
46876;BME280;32866;50.160;14.768;2024-01-30T00:07:04;101180.91;;;-4.00;100.00
46876;BME280;32866;50.160;14.768;2024-01-30T00:09:30;101205.50;;;-3.70;100.00
46876;BME280;32866;50.160;14.768;2024-01-30T00:11:56;101207.91;;;-3.55;100.00
46876;BME280;32866;50.160;14.768;2024-01-30T00:14:22;101204.84;;;-3.48;100.00
46876;BME280;32866;50.160;14.768;2024-01-30T00:16:48;101170.88;;;-3.81;100.00
46876;BME280;32866;50.160;14.768;2024-01-30T00:19:15;101173.84;;;-3.96;100.00
46876;BME280;32866;50.160;14.768;2024-01-30T00:21:41;101204.94;;;-3.81;100.00
46876;BME280;32866;50.160;14.768;2024-01-30T00:24:07;101202.66;;;-3.60;100.00
46876;BME280;32866;50.160;14.768;2024-01-30T00:26:33;101201.25;;;-3.71;100.00
46876;BME280;32866;50.160;14.768;2024-01-30T00:28:59;101195.56;;;-3.84;100.00
46876;BME280;32866;50.160;14.768;2024-01-30T00:31:25;101201.06;;;-3.75;100.00
46876;BME280;32866;50.160;14.768;2024-01-30T00:33:51;101138.03;;;-4.00;100.00
46876;BME280;32866;50.160;14.768;2024-01-30T00:36:17;101174.16;;;-3.70;100.00
46876;BME280;32866;50.160;14.768;2024-01-30T00:38:43;101172.38;;;-3.61;100.00
46876;BME280;32866;50.160;14.768;2024-01-30T00:41:09;101146.06;;;-3.73;100.00
46876;BME280;32866;50.160;14.768;2024-01-30T00:43:36;101162.47;;;-3.60;100.00
46876;BME280;32866;50.160;14.768;2024-01-30T00:46:01;101204.22;;;-3.31;100.00
46876;BME280;32866;50.160;14.768;2024-01-30T00:48:27;101199.94;;;-3.32;100.00
46876;BME280;32866;50.160;14.768;2024-01-30T00:50:53;101199.56;;;-3.40;100.00
46876;BME280;32866;50.160;14.768;2024-01-30T00:53:19;101167.41;;;-3.67;100.00
46876;BME280;32866;50.160;14.768;2024-01-30T00:55:45;101189.25;;;-3.46;100.00
46876;BME280;32866;50.160;14.768;2024-01-30T00:58:11;101130.50;;;-3.98;100.00
46876;BME280;32866;50.160;14.768;2024-01-30T01:00:39;101196.97;;;-3.59;100.00
46876;BME280;32866;50.160;14.768;2024-01-30T01:03:05;101190.25;;;-3.56;100.00
46876;BME280;32866;50.160;14.768;2024-01-30T01:05:31;101179.09;;;-3.77;100.00
46876;BME280;32866;50.160;14.768;2024-01-30T01:07:57;101161.16;;;-3.77;100.00
46876;BME280;32866;50.160;14.768;2024-01-30T01:10:23;101176.94;;;-3.61;100.00
46876;BME280;32866;50.160;14.768;2024-01-30T01:12:49;101192.81;;;-3.51;100.00
46876;BME280;32866;50.160;14.768;2024-01-30T01:15:15;101184.47;;;-3.49;100.00
46876;BME280;32866;50.160;14.768;2024-01-30T01:17:41;101163.66;;;-3.66;100.00
46876;BME280;32866;50.160;14.768;2024-01-30T01:20:08;101179.91;;;-3.63;100.00
46876;BME280;32866;50.160;14.768;2024-01-30T01:22:34;101171.38;;;-3.65;100.00
46876;BME280;32866;50.160;14.768;2024-01-30T01:25:00;101177.53;;;-3.64;100.00
46876;BME280;32866;50.160;14.768;2024-01-30T01:27:27;101132.78;;;-4.05;100.00
46876;BME280;32866;50.160;14.768;2024-01-30T01:29:53;101167.50;;;-3.73;100.00
46876;BME280;32866;50.160;14.768;2024-01-30T01:32:19;101175.94;;;-3.65;100.00
46876;BME280;32866;50.160;14.768;2024-01-30T01:34:45;101126.84;;;-3.88;100.00
46876;BME280;32866;50.160;14.768;2024-01-30T01:37:11;101137.44;;;-3.97;100.00
46876;BME280;32866;50.160;14.768;2024-01-30T01:39:38;101166.03;;;-3.79;100.00
46876;BME280;32866;50.160;14.768;2024-01-30T01:42:04;101174.06;;;-3.79;100.00
46876;BME280;32866;50.160;14.768;2024-01-30T01:44:30;101160.16;;;-3.81;100.00
46876;BME280;32866;50.160;14.768;2024-01-30T01:46:56;101168.00;;;-3.70;100.00
46876;BME280;32866;50.160;14.768;2024-01-30T01:49:27;101111.63;;;-4.21;100.00
46876;BME280;32866;50.160;14.768;2024-01-30T01:51:55;101170.78;;;-3.89;100.00
46876;BME280;32866;50.160;14.768;2024-01-30T01:54:22;101149.75;;;-3.96;100.00
46876;BME280;32866;50.160;14.768;2024-01-30T01:56:50;101154.22;;;-4.05;100.00
46876;BME280;32866;50.160;14.768;2024-01-30T01:59:17;101114.00;;;-4.33;100.00
46876;BME280;32866;50.160;14.768;2024-01-30T02:01:44;101135.47;;;-4.05;100.00
46876;BME280;32866;50.160;14.768;2024-01-30T02:04:11;101145.66;;;-4.07;100.00
46876;BME280;32866;50.160;14.768;2024-01-30T02:06:38;101167.81;;;-4.02;100.00
46876;BME280;32866;50.160;14.768;2024-01-30T02:09:04;101146.06;;;-4.00;100.00
46876;BME280;32866;50.160;14.768;2024-01-30T02:11:30;101168.50;;;-3.68;100.00
46876;BME280;32866;50.160;14.768;2024-01-30T02:14:01;101145.56;;;-4.02;100.00
46876;BME280;32866;50.160;14.768;2024-01-30T02:16:27;101155.28;;;-3.93;100.00
46876;BME280;32866;50.160;14.768;2024-01-30T02:18:53;101163.25;;;-3.74;100.00
46876;BME280;32866;50.160;14.768;2024-01-30T02:21:19;101133.84;;;-4.06;100.00
46876;BME280;32866;50.160;14.768;2024-01-30T02:23:49;101170.47;;;-3.74;100.00
46876;BME280;32866;50.160;14.768;2024-01-30T02:26:16;101131.09;;;-4.01;100.00
46876;BME280;32866;50.160;14.768;2024-01-30T02:28:42;101130.09;;;-4.05;100.00
46876;BME280;32866;50.160;14.768;2024-01-30T02:31:08;101103.09;;;-4.23;100.00
46876;BME280;32866;50.160;14.768;2024-01-30T02:33:34;101138.81;;;-3.86;100.00
46876;BME280;32866;50.160;14.768;2024-01-30T02:36:00;101150.94;;;-3.75;100.00
46876;BME280;32866;50.160;14.768;2024-01-30T02:38:26;101164.63;;;-3.62;100.00
46876;BME280;32866;50.160;14.768;2024-01-30T02:40:52;101165.31;;;-3.70;100.00
46876;BME280;32866;50.160;14.768;2024-01-30T02:43:18;101133.75;;;-4.01;100.00
46876;BME280;32866;50.160;14.768;2024-01-30T02:45:44;101155.63;;;-3.80;100.00
46876;BME280;32866;50.160;14.768;2024-01-30T02:48:10;101132.69;;;-4.00;100.00
46876;BME280;32866;50.160;14.768;2024-01-30T02:50:36;101106.69;;;-4.14;100.00
46876;BME280;32866;50.160;14.768;2024-01-30T02:53:02;101166.44;;;-3.71;100.00
46876;BME280;32866;50.160;14.768;2024-01-30T02:55:28;101091.59;;;-4.23;100.00
46876;BME280;32866;50.160;14.768;2024-01-30T02:57:54;101171.16;;;-3.96;100.00
46876;BME280;32866;50.160;14.768;2024-01-30T03:00:20;101115.09;;;-4.20;100.00
46876;BME280;32866;50.160;14.768;2024-01-30T03:02:46;101117.66;;;-4.29;100.00
46876;BME280;32866;50.160;14.768;2024-01-30T03:05:12;101113.81;;;-4.23;100.00
46876;BME280;32866;50.160;14.768;2024-01-30T03:07:38;101147.56;;;-3.94;100.00
46876;BME280;32866;50.160;14.768;2024-01-30T03:10:05;101171.28;;;-3.74;100.00
46876;BME280;32866;50.160;14.768;2024-01-30T03:12:32;101163.34;;;-3.79;100.00
46876;BME280;32866;50.160;14.768;2024-01-30T03:14:58;101138.63;;;-4.03;100.00
46876;BME280;32866;50.160;14.768;2024-01-30T03:17:24;101170.97;;;-3.72;100.00
46876;BME280;32866;50.160;14.768;2024-01-30T03:19:50;101132.47;;;-3.90;100.00
46876;BME280;32866;50.160;14.768;2024-01-30T03:22:17;101167.22;;;-3.71;100.00
46876;BME280;32866;50.160;14.768;2024-01-30T03:24:43;101124.13;;;-4.16;100.00
46876;BME280;32866;50.160;14.768;2024-01-30T03:27:09;101163.56;;;-3.75;100.00
46876;BME280;32866;50.160;14.768;2024-01-30T03:29:35;101159.56;;;-3.78;100.00
46876;BME280;32866;50.160;14.768;2024-01-30T03:32:01;101158.50;;;-3.77;100.00
46876;BME280;32866;50.160;14.768;2024-01-30T03:34:27;101134.84;;;-4.02;100.00
46876;BME280;32866;50.160;14.768;2024-01-30T03:36:53;101103.38;;;-4.24;100.00
46876;BME280;32866;50.160;14.768;2024-01-30T03:39:19;101106.53;;;-4.36;100.00
46876;BME280;32866;50.160;14.768;2024-01-30T03:41:45;101097.34;;;-4.30;100.00
46876;BME280;32866;50.160;14.768;2024-01-30T03:44:11;101124.66;;;-4.00;100.00
46876;BME280;32866;50.160;14.768;2024-01-30T03:46:37;101144.56;;;-3.93;100.00
46876;BME280;32866;50.160;14.768;2024-01-30T03:49:03;101146.38;;;-3.88;100.00
46876;BME280;32866;50.160;14.768;2024-01-30T03:51:29;101151.34;;;-3.95;100.00
46876;BME280;32866;50.160;14.768;2024-01-30T03:53:55;101146.06;;;-4.00;100.00
46876;BME280;32866;50.160;14.768;2024-01-30T03:56:21;101126.22;;;-4.13;100.00
46876;BME280;32866;50.160;14.768;2024-01-30T03:58:47;101137.22;;;-4.15;100.00
46876;BME280;32866;50.160;14.768;2024-01-30T04:01:14;101133.47;;;-4.00;100.00
46876;BME280;32866;50.160;14.768;2024-01-30T04:03:41;101097.84;;;-4.28;100.00
46876;BME280;32866;50.160;14.768;2024-01-30T04:06:07;101134.16;;;-3.94;100.00
46876;BME280;32866;50.160;14.768;2024-01-30T04:08:33;101103.91;;;-4.08;100.00
46876;BME280;32866;50.160;14.768;2024-01-30T04:11:06;101121.78;;;-3.90;100.00
46876;BME280;32866;50.160;14.768;2024-01-30T04:13:33;101128.69;;;-3.89;100.00
46876;BME280;32866;50.160;14.768;2024-01-30T04:15:59;101118.56;;;-4.06;100.00
46876;BME280;32866;50.160;14.768;2024-01-30T04:18:29;101090.19;;;-4.21;100.00
46876;BME280;32866;50.160;14.768;2024-01-30T04:20:55;101078.69;;;-4.35;100.00
46876;BME280;32866;50.160;14.768;2024-01-30T04:23:21;101125.34;;;-3.95;100.00
46876;BME280;32866;50.160;14.768;2024-01-30T04:25:47;101096.16;;;-4.24;100.00
46876;BME280;32866;50.160;14.768;2024-01-30T04:28:13;101117.59;;;-3.96;100.00
46876;BME280;32866;50.160;14.768;2024-01-30T04:30:39;101121.97;;;-4.00;100.00
46876;BME280;32866;50.160;14.768;2024-01-30T04:33:05;101119.16;;;-4.09;100.00
46876;BME280;32866;50.160;14.768;2024-01-30T04:35:32;101132.78;;;-4.05;100.00
46876;BME280;32866;50.160;14.768;2024-01-30T04:37:57;101131.19;;;-4.06;100.00
46876;BME280;32866;50.160;14.768;2024-01-30T04:40:23;101139.91;;;-4.15;100.00
46876;BME280;32866;50.160;14.768;2024-01-30T04:42:49;101133.28;;;-4.17;100.00
46876;BME280;32866;50.160;14.768;2024-01-30T04:45:15;101147.34;;;-4.25;100.00
46876;BME280;32866;50.160;14.768;2024-01-30T04:47:41;101140.00;;;-4.20;100.00
46876;BME280;32866;50.160;14.768;2024-01-30T04:50:08;101136.44;;;-4.15;100.00
46876;BME280;32866;50.160;14.768;2024-01-30T04:52:35;101144.97;;;-4.13;100.00
46876;BME280;32866;50.160;14.768;2024-01-30T04:55:01;101085.00;;;-4.59;100.00
46876;BME280;32866;50.160;14.768;2024-01-30T04:57:27;101131.28;;;-4.12;100.00
46876;BME280;32866;50.160;14.768;2024-01-30T04:59:53;101138.34;;;-4.02;100.00
46876;BME280;32866;50.160;14.768;2024-01-30T05:02:19;101086.91;;;-4.45;100.00
46876;BME280;32866;50.160;14.768;2024-01-30T05:04:45;101115.69;;;-4.37;100.00
46876;BME280;32866;50.160;14.768;2024-01-30T05:07:11;101151.00;;;-4.07;100.00
46876;BME280;32866;50.160;14.768;2024-01-30T05:09:37;101142.00;;;-4.12;100.00
46876;BME280;32866;50.160;14.768;2024-01-30T05:12:03;101146.16;;;-4.05;100.00
46876;BME280;32866;50.160;14.768;2024-01-30T05:14:29;101146.38;;;-4.02;100.00
46876;BME280;32866;50.160;14.768;2024-01-30T05:16:55;101122.50;;;-4.31;100.00
46876;BME280;32866;50.160;14.768;2024-01-30T05:19:21;101153.91;;;-3.90;100.00
46876;BME280;32866;50.160;14.768;2024-01-30T05:21:49;101140.00;;;-4.06;100.00
46876;BME280;32866;50.160;14.768;2024-01-30T05:24:16;101148.31;;;-4.07;100.00
46876;BME280;32866;50.160;14.768;2024-01-30T05:26:42;101144.38;;;-4.10;100.00
46876;BME280;32866;50.160;14.768;2024-01-30T05:29:08;101140.97;;;-4.16;100.00
46876;BME280;32866;50.160;14.768;2024-01-30T05:31:34;101146.34;;;-4.16;100.00
46876;BME280;32866;50.160;14.768;2024-01-30T05:34:01;101147.16;;;-4.01;100.00
46876;BME280;32866;50.160;14.768;2024-01-30T05:36:27;101167.50;;;-4.00;100.00
46876;BME280;32866;50.160;14.768;2024-01-30T05:38:53;101086.81;;;-4.40;100.00
46876;BME280;32866;50.160;14.768;2024-01-30T05:41:19;101156.41;;;-3.94;100.00
46876;BME280;32866;50.160;14.768;2024-01-30T05:43:46;101146.75;;;-4.08;100.00
46876;BME280;32866;50.160;14.768;2024-01-30T05:46:12;101130.44;;;-4.26;100.00
46876;BME280;32866;50.160;14.768;2024-01-30T05:48:38;101153.78;;;-4.13;100.00
46876;BME280;32866;50.160;14.768;2024-01-30T05:51:04;101158.84;;;-4.11;100.00
46876;BME280;32866;50.160;14.768;2024-01-30T05:53:32;101147.25;;;-4.20;100.00
46876;BME280;32866;50.160;14.768;2024-01-30T05:56:01;101161.22;;;-4.10;100.00
46876;BME280;32866;50.160;14.768;2024-01-30T05:58:27;101120.13;;;-4.47;100.00
46876;BME280;32866;50.160;14.768;2024-01-30T06:00:53;101124.00;;;-4.39;100.00
46876;BME280;32866;50.160;14.768;2024-01-30T06:03:19;101149.72;;;-4.24;100.00
46876;BME280;32866;50.160;14.768;2024-01-30T06:05:45;101087.38;;;-4.57;100.00
46876;BME280;32866;50.160;14.768;2024-01-30T06:08:11;101152.69;;;-4.12;100.00
46876;BME280;32866;50.160;14.768;2024-01-30T06:10:37;101147.44;;;-4.17;100.00
46876;BME280;32866;50.160;14.768;2024-01-30T06:13:03;101113.59;;;-4.40;100.00
46876;BME280;32866;50.160;14.768;2024-01-30T06:15:29;101148.13;;;-4.11;100.00
46876;BME280;32866;50.160;14.768;2024-01-30T06:17:55;101087.69;;;-4.59;100.00
46876;BME280;32866;50.160;14.768;2024-01-30T06:20:21;101145.06;;;-4.18;100.00
46876;BME280;32866;50.160;14.768;2024-01-30T06:22:48;101147.34;;;-4.12;100.00
46876;BME280;32866;50.160;14.768;2024-01-30T06:25:14;101152.00;;;-4.17;100.00
46876;BME280;32866;50.160;14.768;2024-01-30T06:27:40;101148.31;;;-4.21;100.00
46876;BME280;32866;50.160;14.768;2024-01-30T06:30:06;101150.53;;;-4.10;100.00
46876;BME280;32866;50.160;14.768;2024-01-30T06:32:32;101121.34;;;-4.25;100.00
46876;BME280;32866;50.160;14.768;2024-01-30T06:35:00;101124.59;;;-4.28;100.00
46876;BME280;32866;50.160;14.768;2024-01-30T06:37:26;101138.00;;;-4.28;100.00
46876;BME280;32866;50.160;14.768;2024-01-30T06:39:52;101121.94;;;-4.28;100.00
46876;BME280;32866;50.160;14.768;2024-01-30T06:42:19;101157.47;;;-3.95;100.00
46876;BME280;32866;50.160;14.768;2024-01-30T06:44:45;101100.69;;;-4.38;100.00
46876;BME280;32866;50.160;14.768;2024-01-30T06:47:11;101156.94;;;-4.11;100.00
46876;BME280;32866;50.160;14.768;2024-01-30T06:52:13;101089.97;;;-4.52;100.00
46876;BME280;32866;50.160;14.768;2024-01-30T06:54:39;101117.53;;;-4.38;100.00
46876;BME280;32866;50.160;14.768;2024-01-30T06:57:05;101133.22;;;-4.31;100.00
46876;BME280;32866;50.160;14.768;2024-01-30T06:59:37;101135.41;;;-4.33;100.00
46876;BME280;32866;50.160;14.768;2024-01-30T07:02:09;101170.34;;;-4.11;100.00
46876;BME280;32866;50.160;14.768;2024-01-30T07:04:36;101110.78;;;-4.49;100.00
46876;BME280;32866;50.160;14.768;2024-01-30T07:07:03;101167.59;;;-4.05;100.00
46876;BME280;32866;50.160;14.768;2024-01-30T07:09:31;101136.41;;;-4.29;100.00
46876;BME280;32866;50.160;14.768;2024-01-30T07:11:57;101179.88;;;-3.91;100.00
46876;BME280;32866;50.160;14.768;2024-01-30T07:14:26;101182.19;;;-3.84;100.00
46876;BME280;32866;50.160;14.768;2024-01-30T07:16:52;101160.75;;;-3.98;100.00
46876;BME280;32866;50.160;14.768;2024-01-30T07:19:18;101164.63;;;-3.76;100.00
46876;BME280;32866;50.160;14.768;2024-01-30T07:21:44;101171.66;;;-3.52;100.00
46876;BME280;32866;50.160;14.768;2024-01-30T07:24:10;101175.56;;;-3.45;100.00
46876;BME280;32866;50.160;14.768;2024-01-30T07:26:36;101125.31;;;-3.81;100.00
46876;BME280;32866;50.160;14.768;2024-01-30T07:29:02;101141.91;;;-3.65;100.00
46876;BME280;32866;50.160;14.768;2024-01-30T07:31:29;101179.88;;;-3.21;100.00
46876;BME280;32866;50.160;14.768;2024-01-30T07:33:55;101181.44;;;-3.20;100.00
46876;BME280;32866;50.160;14.768;2024-01-30T07:36:20;101196.16;;;-3.18;100.00
46876;BME280;32866;50.160;14.768;2024-01-30T07:38:46;101142.00;;;-3.56;100.00
46876;BME280;32866;50.160;14.768;2024-01-30T07:41:12;101146.66;;;-3.48;100.00
46876;BME280;32866;50.160;14.768;2024-01-30T07:43:38;101178.06;;;-3.12;100.00
46876;BME280;32866;50.160;14.768;2024-01-30T07:46:05;101191.66;;;-2.94;100.00
46876;BME280;32866;50.160;14.768;2024-01-30T07:48:33;101176.63;;;-2.95;100.00
46876;BME280;32866;50.160;14.768;2024-01-30T07:51:00;101189.09;;;-2.77;100.00
46876;BME280;32866;50.160;14.768;2024-01-30T07:53:26;101193.03;;;-2.61;100.00
46876;BME280;32866;50.160;14.768;2024-01-30T07:55:52;101167.63;;;-2.77;100.00
46876;BME280;32866;50.160;14.768;2024-01-30T07:58:18;101198.16;;;-2.50;100.00
46876;BME280;32866;50.160;14.768;2024-01-30T08:00:45;101163.31;;;-2.64;100.00
46876;BME280;32866;50.160;14.768;2024-01-30T08:03:10;101193.25;;;-2.26;100.00
46876;BME280;32866;50.160;14.768;2024-01-30T08:05:37;101198.38;;;-2.15;100.00
46876;BME280;32866;50.160;14.768;2024-01-30T08:08:05;101201.06;;;-2.15;100.00
46876;BME280;32866;50.160;14.768;2024-01-30T08:10:31;101194.59;;;-2.14;100.00
46876;BME280;32866;50.160;14.768;2024-01-30T08:12:56;101199.09;;;-2.01;100.00
46876;BME280;32866;50.160;14.768;2024-01-30T08:15:22;101202.13;;;-1.94;100.00
46876;BME280;32866;50.160;14.768;2024-01-30T08:17:48;101195.91;;;-1.63;100.00
46876;BME280;32866;50.160;14.768;2024-01-30T08:20:15;101157.59;;;-1.77;100.00
46876;BME280;32866;50.160;14.768;2024-01-30T08:22:42;101133.03;;;-1.93;100.00
46876;BME280;32866;50.160;14.768;2024-01-30T08:25:08;101191.25;;;-1.40;100.00
46876;BME280;32866;50.160;14.768;2024-01-30T08:27:35;101129.13;;;-1.78;100.00
46876;BME280;32866;50.160;14.768;2024-01-30T08:30:06;101184.00;;;-1.31;100.00
46876;BME280;32866;50.160;14.768;2024-01-30T08:32:32;101189.34;;;-1.39;100.00
46876;BME280;32866;50.160;14.768;2024-01-30T08:34:59;101191.56;;;-1.41;100.00
46876;BME280;32866;50.160;14.768;2024-01-30T08:37:25;101189.94;;;-1.51;100.00
46876;BME280;32866;50.160;14.768;2024-01-30T08:39:51;101196.50;;;-1.75;100.00
46876;BME280;32866;50.160;14.768;2024-01-30T08:42:17;101147.19;;;-2.10;100.00
46876;BME280;32866;50.160;14.768;2024-01-30T08:44:51;101173.88;;;-1.82;100.00
46876;BME280;32866;50.160;14.768;2024-01-30T08:47:18;101151.06;;;-1.94;100.00
46876;BME280;32866;50.160;14.768;2024-01-30T08:49:45;101190.09;;;-1.47;100.00
46876;BME280;32866;50.160;14.768;2024-01-30T08:52:11;101148.13;;;-1.66;100.00
46876;BME280;32866;50.160;14.768;2024-01-30T08:54:37;101192.72;;;-1.16;100.00
46876;BME280;32866;50.160;14.768;2024-01-30T08:57:04;101181.94;;;-1.07;100.00
46876;BME280;32866;50.160;14.768;2024-01-30T08:59:30;101197.00;;;-1.15;100.00
46876;BME280;32866;50.160;14.768;2024-01-30T09:01:56;101192.44;;;-1.63;100.00
46876;BME280;32866;50.160;14.768;2024-01-30T09:04:23;101197.91;;;-1.28;100.00
46876;BME280;32866;50.160;14.768;2024-01-30T09:06:49;101200.31;;;-1.27;100.00
46876;BME280;32866;50.160;14.768;2024-01-30T09:09:16;101139.13;;;-1.70;100.00
46876;BME280;32866;50.160;14.768;2024-01-30T09:11:42;101204.28;;;-1.16;100.00
46876;BME280;32866;50.160;14.768;2024-01-30T09:14:09;101199.31;;;-1.31;100.00
46876;BME280;32866;50.160;14.768;2024-01-30T09:16:35;101197.75;;;-1.32;100.00
46876;BME280;32866;50.160;14.768;2024-01-30T09:19:01;101162.25;;;-1.52;100.00
46876;BME280;32866;50.160;14.768;2024-01-30T09:21:27;101199.53;;;-1.01;100.00
46876;BME280;32866;50.160;14.768;2024-01-30T09:23:54;101201.44;;;-0.84;100.00
46876;BME280;32866;50.160;14.768;2024-01-30T09:26:20;101155.38;;;-1.00;100.00
46876;BME280;32866;50.160;14.768;2024-01-30T09:28:46;101203.34;;;-0.50;100.00
46876;BME280;32866;50.160;14.768;2024-01-30T09:31:12;101165.97;;;-0.60;100.00
46876;BME280;32866;50.160;14.768;2024-01-30T09:33:38;101132.53;;;-0.59;100.00
46876;BME280;32866;50.160;14.768;2024-01-30T09:36:08;101209.50;;;-0.23;100.00
46876;BME280;32866;50.160;14.768;2024-01-30T09:38:34;101214.72;;;-0.18;100.00
46876;BME280;32866;50.160;14.768;2024-01-30T09:41:03;101194.16;;;-0.49;100.00
46876;BME280;32866;50.160;14.768;2024-01-30T09:43:33;101193.03;;;-0.48;100.00
46876;BME280;32866;50.160;14.768;2024-01-30T09:46:02;101211.69;;;-0.08;100.00
46876;BME280;32866;50.160;14.768;2024-01-30T09:48:30;101213.81;;;0.16;100.00
46876;BME280;32866;50.160;14.768;2024-01-30T09:50:57;101205.53;;;0.30;100.00
46876;BME280;32866;50.160;14.768;2024-01-30T09:53:23;101181.78;;;0.15;100.00
46876;BME280;32866;50.160;14.768;2024-01-30T09:55:50;101200.94;;;0.61;100.00
46876;BME280;32866;50.160;14.768;2024-01-30T09:58:16;101209.41;;;1.01;100.00
46876;BME280;32866;50.160;14.768;2024-01-30T10:00:42;101211.59;;;1.08;100.00
46876;BME280;32866;50.160;14.768;2024-01-30T10:03:09;101198.03;;;1.38;100.00
46876;BME280;32866;50.160;14.768;2024-01-30T10:05:36;101205.94;;;1.76;100.00
46876;BME280;32866;50.160;14.768;2024-01-30T10:08:08;101147.22;;;1.64;100.00
46876;BME280;32866;50.160;14.768;2024-01-30T10:10:34;101207.13;;;2.00;100.00
46876;BME280;32866;50.160;14.768;2024-01-30T10:13:01;101214.97;;;1.93;100.00
46876;BME280;32866;50.160;14.768;2024-01-30T10:15:28;101181.19;;;1.99;100.00
46876;BME280;32866;50.160;14.768;2024-01-30T10:17:54;101189.78;;;2.26;100.00
46876;BME280;32866;50.160;14.768;2024-01-30T10:20:20;101189.56;;;2.31;100.00
46876;BME280;32866;50.160;14.768;2024-01-30T10:22:49;101184.84;;;2.40;100.00
46876;BME280;32866;50.160;14.768;2024-01-30T10:25:15;101181.88;;;2.33;100.00
46876;BME280;32866;50.160;14.768;2024-01-30T10:27:41;101191.00;;;2.03;100.00
46876;BME280;32866;50.160;14.768;2024-01-30T10:30:08;101183.78;;;1.95;100.00
46876;BME280;32866;50.160;14.768;2024-01-30T10:32:34;101136.53;;;1.68;100.00
46876;BME280;32866;50.160;14.768;2024-01-30T10:35:00;101170.59;;;2.06;100.00
46876;BME280;32866;50.160;14.768;2024-01-30T10:37:26;101169.47;;;2.07;100.00
46876;BME280;32866;50.160;14.768;2024-01-30T10:40:02;101166.56;;;2.12;100.00
46876;BME280;32866;50.160;14.768;2024-01-30T10:42:31;101131.63;;;1.95;100.00
46876;BME280;32866;50.160;14.768;2024-01-30T10:47:34;101162.28;;;2.23;100.00
46876;BME280;32866;50.160;14.768;2024-01-30T10:50:02;101169.69;;;2.02;100.00
46876;BME280;32866;50.160;14.768;2024-01-30T10:52:32;101166.22;;;1.56;100.00
46876;BME280;32866;50.160;14.768;2024-01-30T10:54:59;101161.81;;;1.18;100.00
46876;BME280;32866;50.160;14.768;2024-01-30T10:57:26;101122.44;;;0.74;100.00
46876;BME280;32866;50.160;14.768;2024-01-30T10:59:56;101164.97;;;0.99;100.00
46876;BME280;32866;50.160;14.768;2024-01-30T11:02:24;101161.03;;;0.96;100.00
46876;BME280;32866;50.160;14.768;2024-01-30T11:04:55;101159.81;;;0.85;100.00
46876;BME280;32866;50.160;14.768;2024-01-30T11:07:26;101147.97;;;0.77;100.00
46876;BME280;32866;50.160;14.768;2024-01-30T11:09:59;101153.31;;;0.86;100.00
46876;BME280;32866;50.160;14.768;2024-01-30T11:12:33;101137.31;;;0.81;100.00
46876;BME280;32866;50.160;14.768;2024-01-30T11:15:15;101095.28;;;0.50;100.00
46876;BME280;32866;50.160;14.768;2024-01-30T11:17:52;101144.63;;;1.01;100.00
46876;BME280;32866;50.160;14.768;2024-01-30T11:20:31;101105.84;;;0.64;100.00
46876;BME280;32866;50.160;14.768;2024-01-30T11:22:58;101137.44;;;1.05;100.00
46876;BME280;32866;50.160;14.768;2024-01-30T11:25:25;101130.97;;;1.19;100.00
46876;BME280;32866;50.160;14.768;2024-01-30T11:27:53;101125.84;;;1.26;100.00
46876;BME280;32866;50.160;14.768;2024-01-30T11:33:02;101125.16;;;1.29;100.00
46876;BME280;32866;50.160;14.768;2024-01-30T11:35:33;101121.22;;;1.26;100.00
46876;BME280;32866;50.160;14.768;2024-01-30T11:38:00;101122.38;;;1.38;100.00
46876;BME280;32866;50.160;14.768;2024-01-30T11:40:30;101109.44;;;1.43;100.00
46876;BME280;32866;50.160;14.768;2024-01-30T11:42:59;101125.06;;;1.71;100.00
46876;BME280;32866;50.160;14.768;2024-01-30T11:45:26;101107.47;;;1.77;100.00
46876;BME280;32866;50.160;14.768;2024-01-30T11:47:53;101115.94;;;2.00;100.00
46876;BME280;32866;50.160;14.768;2024-01-30T11:50:20;101113.59;;;1.99;100.00
46876;BME280;32866;50.160;14.768;2024-01-30T11:52:46;101092.25;;;1.60;100.00
46876;BME280;32866;50.160;14.768;2024-01-30T11:55:14;101081.59;;;1.30;100.00
46876;BME280;32866;50.160;14.768;2024-01-30T11:57:40;101040.28;;;1.18;100.00
46876;BME280;32866;50.160;14.768;2024-01-30T12:00:06;101098.91;;;1.63;100.00
46876;BME280;32866;50.160;14.768;2024-01-30T12:02:40;101095.88;;;1.77;100.00
46876;BME280;32866;50.160;14.768;2024-01-30T12:05:06;101087.66;;;1.73;100.00
46876;BME280;32866;50.160;14.768;2024-01-30T12:07:33;101088.09;;;1.75;100.00
46876;BME280;32866;50.160;14.768;2024-01-30T12:09:59;101081.66;;;1.67;100.00
46876;BME280;32866;50.160;14.768;2024-01-30T12:12:27;101070.97;;;1.59;100.00
46876;BME280;32866;50.160;14.768;2024-01-30T12:14:53;101079.28;;;1.54;100.00
46876;BME280;32866;50.160;14.768;2024-01-30T12:17:29;101087.59;;;1.48;100.00
46876;BME280;32866;50.160;14.768;2024-01-30T12:20:15;101081.13;;;1.74;100.00
46876;BME280;32866;50.160;14.768;2024-01-30T12:22:43;101074.81;;;1.70;100.00
46876;BME280;32866;50.160;14.768;2024-01-30T12:25:10;101030.59;;;1.29;100.00
46876;BME280;32866;50.160;14.768;2024-01-30T12:27:37;101062.75;;;1.55;100.00
46876;BME280;32866;50.160;14.768;2024-01-30T12:30:07;101061.97;;;1.55;100.00
46876;BME280;32866;50.160;14.768;2024-01-30T12:32:38;101058.47;;;1.79;100.00
46876;BME280;32866;50.160;14.768;2024-01-30T12:35:10;101020.16;;;2.67;100.00
46876;BME280;32866;50.160;14.768;2024-01-30T12:37:36;101053.56;;;3.79;100.00
46876;BME280;32866;50.160;14.768;2024-01-30T12:40:02;101055.16;;;3.48;100.00